createdAt,value
2018-08-23T00:00:46.633Z,30.00
2018-08-23T00:01:46.607Z,29.20
2018-08-23T00:02:46.565Z,29.10
2018-08-23T00:03:46.560Z,28.40
2018-08-23T00:04:46.512Z,30.00
2018-08-23T00:05:46.460Z,29.00
2018-08-23T00:06:46.413Z,26.00
2018-08-23T00:07:46.379Z,26.10
2018-08-23T00:08:46.366Z,26.70
2018-08-23T00:09:46.303Z,26.30
2018-08-23T00:10:46.283Z,27.50
2018-08-23T00:11:46.241Z,28.80
2018-08-23T00:12:46.200Z,28.50
2018-08-23T00:13:46.165Z,30.00
2018-08-23T00:14:46.123Z,31.20
2018-08-23T00:15:46.101Z,30.10
2018-08-23T00:16:46.174Z,30.10
2018-08-23T00:17:46.011Z,31.30
2018-08-23T00:18:45.968Z,31.20
2018-08-23T00:19:45.943Z,32.40
2018-08-23T00:20:45.926Z,32.60
2018-08-23T00:21:56.145Z,32.00
2018-08-23T00:22:45.831Z,31.20
2018-08-23T00:23:45.789Z,32.00
2018-08-23T00:24:45.754Z,33.00
2018-08-23T00:25:45.709Z,32.20
2018-08-23T00:26:45.702Z,33.40
2018-08-23T00:27:45.642Z,32.40
2018-08-23T00:28:45.607Z,30.00
2018-08-23T00:29:45.572Z,30.50
2018-08-23T00:30:45.532Z,31.60
2018-08-23T00:31:45.500Z,29.50
2018-08-23T00:32:45.483Z,29.40
2018-08-23T00:33:45.422Z,30.40
2018-08-23T00:34:45.380Z,31.10
2018-08-23T00:35:45.349Z,33.00
2018-08-23T00:36:45.317Z,32.30
2018-08-23T00:37:55.205Z,34.50
2018-08-23T00:38:45.242Z,33.50
2018-08-23T00:39:45.206Z,36.20
2018-08-23T00:40:45.171Z,35.50
2018-08-23T00:41:45.134Z,33.20
2018-08-23T00:42:45.113Z,35.60
2018-08-23T00:43:45.045Z,32.90
2018-08-23T00:44:45.014Z,34.50
2018-08-23T00:45:44.984Z,33.20
2018-08-23T00:46:44.942Z,33.20
2018-08-23T00:47:44.910Z,33.30
2018-08-23T00:48:44.924Z,36.10
2018-08-23T00:49:44.832Z,35.90
2018-08-23T00:50:44.801Z,36.10
2018-08-23T00:51:44.754Z,34.10
2018-08-23T00:52:44.711Z,35.60
2018-08-23T00:53:44.712Z,38.10
2018-08-23T00:54:44.652Z,36.90
2018-08-23T00:55:44.607Z,37.20
2018-08-23T00:56:44.568Z,35.90
2018-08-23T00:57:44.529Z,36.30
2018-08-23T00:58:44.511Z,37.60
2018-08-23T00:59:44.495Z,34.50
2018-08-23T01:00:44.432Z,34.00
2018-08-23T01:01:44.392Z,33.20
2018-08-23T01:02:44.354Z,32.00
2018-08-23T01:03:44.378Z,33.00
2018-08-23T01:04:44.332Z,33.70
2018-08-23T01:05:44.271Z,32.10
2018-08-23T01:06:44.294Z,33.80
2018-08-23T01:07:44.215Z,37.60
2018-08-23T01:08:44.141Z,39.50
2018-08-23T01:09:44.090Z,39.00
2018-08-23T01:10:44.087Z,41.40
2018-08-23T01:11:44.026Z,38.80
2018-08-23T01:12:43.984Z,38.70
2018-08-23T01:13:53.236Z,36.60
2018-08-23T01:14:43.909Z,34.30
2018-08-23T01:15:43.885Z,36.60
2018-08-23T01:16:43.831Z,33.60
2018-08-23T01:17:43.806Z,34.30
2018-08-23T01:18:43.769Z,35.80
2018-08-23T01:19:43.721Z,36.50
2018-08-23T01:20:43.706Z,36.30
2018-08-23T01:21:43.646Z,34.80
2018-08-23T01:22:43.601Z,30.00
2018-08-23T01:23:43.578Z,30.60
2018-08-23T01:24:43.536Z,34.30
2018-08-23T01:25:43.520Z,30.10
2018-08-23T01:26:43.461Z,31.60
2018-08-23T01:27:43.424Z,32.30
2018-08-23T01:28:43.385Z,32.80
2018-08-23T01:29:43.356Z,32.50
2018-08-23T01:30:43.348Z,35.40
2018-08-23T01:31:43.283Z,37.00
2018-08-23T01:32:43.242Z,37.80
2018-08-23T01:33:43.198Z,38.90
2018-08-23T01:34:43.160Z,38.30
2018-08-23T01:35:43.123Z,41.40
2018-08-23T01:36:43.112Z,39.30
2018-08-23T01:37:43.052Z,42.10
2018-08-23T01:38:43.038Z,37.70
2018-08-23T01:39:42.975Z,38.90
2018-08-23T01:40:42.941Z,39.90
2018-08-23T01:41:42.929Z,44.20
2018-08-23T01:42:42.870Z,44.00
2018-08-23T01:43:42.831Z,39.10
2018-08-23T01:44:42.798Z,39.00
2018-08-23T01:45:42.755Z,35.20
2018-08-23T01:46:42.733Z,35.70
2018-08-23T01:47:42.679Z,40.30
2018-08-23T01:48:42.639Z,44.90
2018-08-23T01:49:42.608Z,47.90
2018-08-23T01:50:42.579Z,46.20
2018-08-23T01:51:51.300Z,48.20
2018-08-23T01:52:42.486Z,47.00
2018-08-23T01:53:42.468Z,45.60
2018-08-23T01:54:42.421Z,46.10
2018-08-23T01:55:42.388Z,44.90
2018-08-23T01:56:42.345Z,40.80
2018-08-23T01:57:42.326Z,40.60
2018-08-23T01:58:42.290Z,40.10
2018-08-23T01:59:42.236Z,40.10
2018-08-23T02:00:42.196Z,40.60
2018-08-23T02:01:42.158Z,40.90
2018-08-23T02:02:42.150Z,38.00
2018-08-23T02:03:42.077Z,39.10
2018-08-23T02:04:42.044Z,40.90
2018-08-23T02:05:42.005Z,37.50
2018-08-23T02:06:41.977Z,42.90
2018-08-23T02:07:41.960Z,41.30
2018-08-23T02:08:41.911Z,38.00
2018-08-23T02:09:41.855Z,37.30
2018-08-23T02:10:41.814Z,40.60
2018-08-23T02:11:41.787Z,41.30
2018-08-23T02:12:41.750Z,43.90
2018-08-23T02:13:41.734Z,46.90
2018-08-23T02:14:41.677Z,46.30
2018-08-23T02:15:41.629Z,47.10
2018-08-23T02:16:41.593Z,44.40
2018-08-23T02:17:41.555Z,46.70
2018-08-23T02:18:41.565Z,45.30
2018-08-23T02:19:41.493Z,43.70
2018-08-23T02:20:41.449Z,39.90
2018-08-23T02:21:41.414Z,41.60
2018-08-23T02:22:41.374Z,40.70
2018-08-23T02:23:41.352Z,39.90
2018-08-23T02:24:41.294Z,40.80
2018-08-23T02:25:41.267Z,40.20
2018-08-23T02:26:41.226Z,40.20
2018-08-23T02:27:41.183Z,40.80
2018-08-23T02:28:41.192Z,39.90
2018-08-23T02:29:41.106Z,43.10
2018-08-23T02:30:41.071Z,43.90
2018-08-23T02:31:41.038Z,41.60
2018-08-23T02:32:41.003Z,41.90
2018-08-23T02:33:40.999Z,41.80
2018-08-23T02:34:40.931Z,42.60
2018-08-23T02:35:40.882Z,44.60
2018-08-23T02:36:40.850Z,46.50
2018-08-23T02:37:40.812Z,46.80
2018-08-23T02:38:40.791Z,47.30
2018-08-23T02:39:40.778Z,46.20
2018-08-23T02:40:40.700Z,49.30
2018-08-23T02:41:40.655Z,47.50
2018-08-23T02:42:40.620Z,44.40
2018-08-23T02:43:40.594Z,47.70
2018-08-23T02:44:40.599Z,47.00
2018-08-23T02:45:40.514Z,46.20
2018-08-23T02:46:40.484Z,47.60
2018-08-23T02:47:40.442Z,51.80
2018-08-23T02:48:40.413Z,50.50
2018-08-23T02:49:40.357Z,52.20
2018-08-23T02:50:40.354Z,55.00
2018-08-23T02:51:40.289Z,51.30
2018-08-23T02:52:40.249Z,49.90
2018-08-23T02:53:40.216Z,49.20
2018-08-23T02:54:40.178Z,47.80
2018-08-23T02:55:40.155Z,45.90
2018-08-23T02:56:40.100Z,45.20
2018-08-23T02:57:40.067Z,42.30
2018-08-23T02:58:40.028Z,41.80
2018-08-23T02:59:39.980Z,41.30
2018-08-23T03:00:40.028Z,40.20
2018-08-23T03:01:39.928Z,45.00
2018-08-23T03:02:39.868Z,43.20
2018-08-23T03:03:39.841Z,41.30
2018-08-23T03:04:39.807Z,44.50
2018-08-23T03:05:39.763Z,45.00
2018-08-23T03:06:39.747Z,44.90
2018-08-23T03:07:49.839Z,46.10
2018-08-23T03:08:39.644Z,47.30
2018-08-23T03:09:39.614Z,52.10
2018-08-23T03:10:39.572Z,48.20
2018-08-23T03:11:39.558Z,46.80
2018-08-23T03:12:39.496Z,51.90
2018-08-23T03:13:39.463Z,47.80
2018-08-23T03:14:39.427Z,46.30
2018-08-23T03:15:39.387Z,49.30
2018-08-23T03:16:39.349Z,50.30
2018-08-23T03:17:39.326Z,43.90
2018-08-23T03:18:39.271Z,42.30
2018-08-23T03:19:39.234Z,44.00
2018-08-23T03:20:39.197Z,45.90
2018-08-23T03:21:39.161Z,41.20
2018-08-23T03:22:39.153Z,40.50
2018-08-23T03:23:39.086Z,41.40
2018-08-23T03:24:39.051Z,41.00
2018-08-23T03:25:39.002Z,44.20
2018-08-23T03:26:38.967Z,45.90
2018-08-23T03:27:38.936Z,42.80
2018-08-23T03:28:38.917Z,43.90
2018-08-23T03:29:38.859Z,45.10
2018-08-23T03:30:38.876Z,44.40
2018-08-23T03:31:38.776Z,44.90
2018-08-23T03:32:38.738Z,45.00
2018-08-23T03:33:38.732Z,51.10
2018-08-23T03:34:38.676Z,49.30
2018-08-23T03:35:38.635Z,45.60
2018-08-23T03:36:38.594Z,44.90
2018-08-23T03:37:38.552Z,47.20
2018-08-23T03:38:38.540Z,45.30
2018-08-23T03:39:38.476Z,45.60
2018-08-23T03:40:38.441Z,47.10
2018-08-23T03:41:38.408Z,46.20
2018-08-23T03:42:38.366Z,47.30
2018-08-23T03:43:38.356Z,47.50
2018-08-23T03:44:49.388Z,49.30
2018-08-23T03:45:38.261Z,50.50
2018-08-23T03:46:38.218Z,46.00
2018-08-23T03:47:38.176Z,47.60
2018-08-23T03:48:38.138Z,47.60
2018-08-23T03:49:38.118Z,53.20
2018-08-23T03:50:38.061Z,54.20
2018-08-23T03:51:38.036Z,53.10
2018-08-23T03:52:38.069Z,50.10
2018-08-23T03:53:37.954Z,49.50
2018-08-23T03:54:37.945Z,53.20
2018-08-23T03:55:37.875Z,52.10
2018-08-23T03:56:37.834Z,49.90
2018-08-23T03:57:37.801Z,49.70
2018-08-23T03:58:37.763Z,45.60
2018-08-23T03:59:37.722Z,46.70
2018-08-23T04:00:37.703Z,45.20
2018-08-23T04:01:37.643Z,43.80
2018-08-23T04:02:37.605Z,44.40
2018-08-23T04:03:37.580Z,41.00
2018-08-23T04:04:37.537Z,42.00
2018-08-23T04:05:37.528Z,54.20
2018-08-23T04:06:37.462Z,51.20
2018-08-23T04:07:37.418Z,47.40
2018-08-23T04:08:37.378Z,51.00
2018-08-23T04:09:37.346Z,54.00
2018-08-23T04:10:37.327Z,52.20
2018-08-23T04:11:37.276Z,55.20
2018-08-23T04:12:37.242Z,49.60
2018-08-23T04:13:37.192Z,51.00
2018-08-23T04:14:37.151Z,53.00
2018-08-23T04:15:37.145Z,52.00
2018-08-23T04:16:37.084Z,50.20
2018-08-23T04:17:37.050Z,50.20
2018-08-23T04:18:37.007Z,50.80
2018-08-23T04:19:36.963Z,48.60
2018-08-23T04:20:36.953Z,49.90
2018-08-23T04:21:36.889Z,49.00
2018-08-23T04:22:36.852Z,42.90
2018-08-23T04:23:46.924Z,44.50
2018-08-23T04:24:36.783Z,46.40
2018-08-23T04:25:36.736Z,45.20
2018-08-23T04:26:36.721Z,46.20
2018-08-23T04:27:36.669Z,47.20
2018-08-23T04:28:36.634Z,52.60
2018-08-23T04:29:36.587Z,49.80
2018-08-23T04:30:36.550Z,53.10
2018-08-23T04:31:36.533Z,54.00
2018-08-23T04:32:36.471Z,47.70
2018-08-23T04:33:36.440Z,50.60
2018-08-23T04:34:36.407Z,52.90
2018-08-23T04:35:36.363Z,54.40
2018-08-23T04:36:36.346Z,51.30
2018-08-23T04:37:36.281Z,48.50
2018-08-23T04:38:36.251Z,50.00
2018-08-23T04:39:36.214Z,49.70
2018-08-23T04:40:36.162Z,46.20
2018-08-23T04:41:36.157Z,47.30
2018-08-23T04:42:36.097Z,47.70
2018-08-23T04:43:45.467Z,48.10
2018-08-23T04:44:36.035Z,54.60
2018-08-23T04:45:35.986Z,47.50
2018-08-23T04:46:35.977Z,45.20
2018-08-23T04:47:35.903Z,45.00
2018-08-23T04:48:35.863Z,48.80
2018-08-23T04:49:35.825Z,57.40
2018-08-23T04:50:35.788Z,61.60
2018-08-23T04:51:35.789Z,56.80
2018-08-23T04:52:35.743Z,57.80
2018-08-23T04:53:35.679Z,61.60
2018-08-23T04:54:35.643Z,60.20
2018-08-23T04:55:35.600Z,63.80
2018-08-23T04:56:35.564Z,57.40
2018-08-23T04:57:35.551Z,58.40
2018-08-23T04:58:35.491Z,56.70
2018-08-23T04:59:35.448Z,51.80
2018-08-23T05:00:35.407Z,47.00
2018-08-23T05:01:45.503Z,49.30
2018-08-23T05:02:35.373Z,47.30
2018-08-23T05:03:35.303Z,48.00
2018-08-23T05:04:35.264Z,48.80
2018-08-23T05:05:35.217Z,54.40
2018-08-23T05:06:35.181Z,55.30
2018-08-23T05:07:35.166Z,54.00
2018-08-23T05:08:35.108Z,52.50
2018-08-23T05:09:35.082Z,52.10
2018-08-23T05:10:35.037Z,49.80
2018-08-23T05:11:34.991Z,45.80
2018-08-23T05:12:34.953Z,50.20
2018-08-23T05:13:34.953Z,45.70
2018-08-23T05:14:34.884Z,45.50
2018-08-23T05:15:34.847Z,44.00
2018-08-23T05:16:34.815Z,46.10
2018-08-23T05:17:34.773Z,45.30
2018-08-23T05:18:34.758Z,43.20
2018-08-23T05:19:34.720Z,42.20
2018-08-23T05:20:34.651Z,42.20
2018-08-23T05:21:34.620Z,40.30
2018-08-23T05:22:34.587Z,42.90
2018-08-23T05:23:34.573Z,44.20
2018-08-23T05:24:34.510Z,43.30
2018-08-23T05:25:34.462Z,42.30
2018-08-23T05:26:34.424Z,42.70
2018-08-23T05:27:34.399Z,41.90
2018-08-23T05:28:34.359Z,43.90
2018-08-23T05:29:34.334Z,43.50
2018-08-23T05:30:34.282Z,42.80
2018-08-23T05:31:34.240Z,40.90
2018-08-23T05:32:34.213Z,40.70
2018-08-23T05:33:34.170Z,42.30
2018-08-23T05:34:34.156Z,39.60
2018-08-23T05:35:34.102Z,38.60
2018-08-23T05:36:34.063Z,39.40
2018-08-23T05:37:34.022Z,40.10
2018-08-23T05:38:34.012Z,39.90
2018-08-23T05:39:33.951Z,41.90
2018-08-23T05:40:33.909Z,39.60
2018-08-23T05:41:43.039Z,40.30
2018-08-23T05:42:33.844Z,40.80
2018-08-23T05:43:33.817Z,39.50
2018-08-23T05:44:33.797Z,40.70
2018-08-23T05:45:33.735Z,40.00
2018-08-23T05:46:33.698Z,39.00
2018-08-23T05:47:33.686Z,37.40
2018-08-23T05:48:33.619Z,40.40
2018-08-23T05:49:33.606Z,38.80
2018-08-23T05:50:33.551Z,39.60
2018-08-23T05:51:33.517Z,40.50
2018-08-23T05:52:33.480Z,40.70
2018-08-23T05:53:33.448Z,41.90
2018-08-23T05:54:33.439Z,40.70
2018-08-23T05:55:33.373Z,39.00
2018-08-23T05:56:33.339Z,39.70
2018-08-23T05:57:33.309Z,38.00
2018-08-23T05:58:33.275Z,38.00
2018-08-23T05:59:33.231Z,37.10
2018-08-23T06:00:33.221Z,39.50
2018-08-23T06:01:33.159Z,39.70
2018-08-23T06:02:43.630Z,40.40
2018-08-23T06:03:33.104Z,40.30
2018-08-23T06:04:33.071Z,41.50
2018-08-23T06:05:33.052Z,40.90
2018-08-23T06:06:32.990Z,38.10
2018-08-23T06:07:32.958Z,40.30
2018-08-23T06:08:32.920Z,39.60
2018-08-23T06:09:32.889Z,40.80
2018-08-23T06:10:32.859Z,40.10
2018-08-23T06:11:32.837Z,38.90
2018-08-23T06:12:32.783Z,41.30
2018-08-23T06:13:32.755Z,42.00
2018-08-23T06:14:32.720Z,41.90
2018-08-23T06:15:32.693Z,42.30
2018-08-23T06:16:32.677Z,44.30
2018-08-23T06:17:32.618Z,42.50
2018-08-23T06:18:32.584Z,41.70
2018-08-23T06:19:43.617Z,41.60
2018-08-23T06:20:32.523Z,42.10
2018-08-23T06:21:32.507Z,42.70
2018-08-23T06:22:32.450Z,42.60
2018-08-23T06:23:32.413Z,43.30
2018-08-23T06:24:32.380Z,44.20
2018-08-23T06:25:32.354Z,43.00
2018-08-23T06:26:32.342Z,42.40
2018-08-23T06:27:32.322Z,43.00
2018-08-23T06:28:32.243Z,43.60
2018-08-23T06:29:32.213Z,43.40
2018-08-23T06:30:32.182Z,44.40
2018-08-23T06:31:32.157Z,45.30
2018-08-23T06:32:32.141Z,45.60
2018-08-23T06:33:32.321Z,46.20
2018-08-23T06:34:32.054Z,44.30
2018-08-23T06:35:32.024Z,44.00
2018-08-23T06:36:31.986Z,43.70
2018-08-23T06:37:31.986Z,45.00
2018-08-23T06:38:31.944Z,41.70
2018-08-23T06:39:31.892Z,43.20
2018-08-23T06:40:42.158Z,45.90
2018-08-23T06:41:31.848Z,46.90
2018-08-23T06:42:31.816Z,45.40
2018-08-23T06:43:31.763Z,45.20
2018-08-23T06:44:31.753Z,44.70
2018-08-23T06:45:31.689Z,49.50
2018-08-23T06:46:31.658Z,47.30
2018-08-23T06:47:31.653Z,47.20
2018-08-23T06:48:31.599Z,47.10
2018-08-23T06:49:31.573Z,48.70
2018-08-23T06:50:31.535Z,50.10
2018-08-23T06:51:31.505Z,48.80
2018-08-23T06:52:31.474Z,49.60
2018-08-23T06:53:31.455Z,50.70
2018-08-23T06:54:31.398Z,50.20
2018-08-23T06:55:31.375Z,49.60
2018-08-23T06:56:31.349Z,47.90
2018-08-23T06:57:31.304Z,48.50
2018-08-23T06:58:31.296Z,48.00
2018-08-23T06:59:41.701Z,48.00
2018-08-23T07:00:31.220Z,49.10
2018-08-23T07:01:31.186Z,46.90
2018-08-23T07:02:31.151Z,49.30
2018-08-23T07:03:31.140Z,48.60
2018-08-23T07:04:31.084Z,49.50
2018-08-23T07:05:31.122Z,47.40
2018-08-23T07:06:31.021Z,49.40
2018-08-23T07:07:31.000Z,48.30
2018-08-23T07:08:30.961Z,48.00
2018-08-23T07:09:30.951Z,47.90
2018-08-23T07:10:30.967Z,48.60
2018-08-23T07:11:30.874Z,47.10
2018-08-23T07:12:30.842Z,47.80
2018-08-23T07:13:30.809Z,47.60
2018-08-23T07:14:30.797Z,48.40
2018-08-23T07:15:30.741Z,48.50
2018-08-23T07:16:30.707Z,45.70
2018-08-23T07:17:30.725Z,47.40
2018-08-23T07:18:40.751Z,47.60
2018-08-23T07:19:30.650Z,47.90
2018-08-23T07:20:30.591Z,48.30
2018-08-23T07:21:30.555Z,48.10
2018-08-23T07:22:30.553Z,47.80
2018-08-23T07:23:30.506Z,49.90
2018-08-23T07:24:30.471Z,48.70
2018-08-23T07:25:30.453Z,49.30
2018-08-23T07:26:30.408Z,50.00
2018-08-23T07:27:30.371Z,48.30
2018-08-23T07:28:30.340Z,48.40
2018-08-23T07:29:30.318Z,49.40
2018-08-23T07:30:30.310Z,49.00
2018-08-23T07:31:30.306Z,47.60
2018-08-23T07:32:30.229Z,48.20
2018-08-23T07:33:30.187Z,49.00
2018-08-23T07:34:30.155Z,48.00
2018-08-23T07:35:30.149Z,47.70
2018-08-23T07:36:30.094Z,49.50
2018-08-23T07:37:30.085Z,49.60
2018-08-23T07:38:30.042Z,49.50
2018-08-23T07:39:30.004Z,48.60
2018-08-23T07:40:29.993Z,49.20
2018-08-23T07:41:29.949Z,51.40
2018-08-23T07:42:29.920Z,50.50
2018-08-23T07:43:29.889Z,49.50
2018-08-23T07:44:29.858Z,48.00
2018-08-23T07:45:29.845Z,48.60
2018-08-23T07:46:29.790Z,51.20
2018-08-23T07:47:29.767Z,51.40
2018-08-23T07:48:29.762Z,52.30
2018-08-23T07:49:29.707Z,51.30
2018-08-23T07:50:29.682Z,49.70
2018-08-23T07:51:29.672Z,51.10
2018-08-23T07:52:29.652Z,51.60
2018-08-23T07:53:29.723Z,51.60
2018-08-23T07:54:29.552Z,50.30
2018-08-23T07:55:29.556Z,50.50
2018-08-23T07:56:29.506Z,49.10
2018-08-23T07:57:29.460Z,52.20
2018-08-23T07:58:29.433Z,52.70
2018-08-23T07:59:29.400Z,52.40
2018-08-23T08:00:29.394Z,54.50
2018-08-23T08:01:29.346Z,52.00
2018-08-23T08:02:29.315Z,54.60
2018-08-23T08:03:29.280Z,51.80
2018-08-23T08:04:29.249Z,54.60
2018-08-23T08:05:29.251Z,50.50
2018-08-23T08:06:29.197Z,48.10
2018-08-23T08:07:29.169Z,51.20
2018-08-23T08:08:29.138Z,51.60
2018-08-23T08:09:29.102Z,53.80
2018-08-23T08:10:29.090Z,53.00
2018-08-23T08:11:29.052Z,53.50
2018-08-23T08:12:29.017Z,53.80
2018-08-23T08:13:28.985Z,52.10
2018-08-23T08:14:28.949Z,50.20
2018-08-23T08:15:28.947Z,51.30
2018-08-23T08:16:28.890Z,51.50
2018-08-23T08:17:39.304Z,51.40
2018-08-23T08:18:28.839Z,50.60
2018-08-23T08:19:28.803Z,48.80
2018-08-23T08:20:28.805Z,52.70
2018-08-23T08:21:28.750Z,51.40
2018-08-23T08:22:28.717Z,50.60
2018-08-23T08:23:28.687Z,50.50
2018-08-23T08:24:28.669Z,49.50
2018-08-23T08:25:28.624Z,44.80
2018-08-23T08:26:28.645Z,42.40
2018-08-23T08:27:28.572Z,42.40
2018-08-23T08:28:28.544Z,41.50
2018-08-23T08:29:28.520Z,42.00
2018-08-23T08:30:28.488Z,41.00
2018-08-23T08:31:28.474Z,41.80
2018-08-23T08:32:28.419Z,40.40
2018-08-23T08:33:28.392Z,40.90
2018-08-23T08:34:28.364Z,41.80
2018-08-23T08:35:28.342Z,39.30
2018-08-23T08:36:28.332Z,37.20
2018-08-23T08:37:28.283Z,40.90
2018-08-23T08:38:28.252Z,39.10
2018-08-23T08:39:28.222Z,40.70
2018-08-23T08:40:28.189Z,40.30
2018-08-23T08:41:28.190Z,40.30
2018-08-23T08:42:28.137Z,39.20
2018-08-23T08:43:28.104Z,39.70
2018-08-23T08:44:28.073Z,40.50
2018-08-23T08:45:28.045Z,39.50
2018-08-23T08:46:28.042Z,39.40
2018-08-23T08:47:27.998Z,36.80
2018-08-23T08:48:27.964Z,35.10
2018-08-23T08:49:27.965Z,35.10
2018-08-23T08:50:27.986Z,34.00
2018-08-23T08:51:27.871Z,34.70
2018-08-23T08:52:27.871Z,35.30
2018-08-23T08:53:27.816Z,37.30
2018-08-23T08:54:27.789Z,37.10
2018-08-23T08:55:36.864Z,37.60
2018-08-23T08:56:27.737Z,35.00
2018-08-23T08:57:27.739Z,35.80
2018-08-23T08:58:27.682Z,34.80
2018-08-23T08:59:27.657Z,35.80
2018-08-23T09:00:27.628Z,34.00
2018-08-23T09:01:27.590Z,33.70
2018-08-23T09:02:27.567Z,36.60
2018-08-23T09:03:27.559Z,35.90
2018-08-23T09:04:27.507Z,34.40
2018-08-23T09:05:27.488Z,36.90
2018-08-23T09:06:27.459Z,36.30
2018-08-23T09:07:27.434Z,35.60
2018-08-23T09:08:27.434Z,35.60
2018-08-23T09:09:27.374Z,32.20
2018-08-23T09:10:27.343Z,35.40
2018-08-23T09:11:27.329Z,34.90
2018-08-23T09:12:27.295Z,31.80
2018-08-23T09:13:27.261Z,30.70
2018-08-23T09:14:27.253Z,30.40
2018-08-23T09:15:27.203Z,32.20
2018-08-23T09:16:27.181Z,33.20
2018-08-23T09:17:27.153Z,29.20
2018-08-23T09:18:27.129Z,30.30
2018-08-23T09:19:27.116Z,31.50
2018-08-23T09:20:27.071Z,29.10
2018-08-23T09:21:27.034Z,30.20
2018-08-23T09:22:27.007Z,31.40
2018-08-23T09:23:26.976Z,28.70
2018-08-23T09:24:26.974Z,27.80
2018-08-23T09:25:26.937Z,24.30
2018-08-23T09:26:26.901Z,24.20
2018-08-23T09:27:26.867Z,22.40
2018-08-23T09:28:26.840Z,21.10
2018-08-23T09:29:26.843Z,23.00
2018-08-23T09:30:26.795Z,25.00
2018-08-23T09:31:26.766Z,24.30
2018-08-23T09:32:26.738Z,25.50
2018-08-23T09:33:26.707Z,23.80
2018-08-23T09:34:26.686Z,23.00
2018-08-23T09:35:33.729Z,24.00
2018-08-23T09:36:26.640Z,23.60
2018-08-23T09:37:26.607Z,21.50
2018-08-23T09:38:26.593Z,21.80
2018-08-23T09:39:26.549Z,21.60
2018-08-23T09:40:26.544Z,22.00
2018-08-23T09:41:26.507Z,22.30
2018-08-23T09:42:26.482Z,21.80
2018-08-23T09:43:26.444Z,19.60
2018-08-23T09:44:26.422Z,20.70
2018-08-23T09:45:26.413Z,22.20
2018-08-23T09:46:26.364Z,21.70
2018-08-23T09:47:26.417Z,19.60
2018-08-23T09:48:26.318Z,17.30
2018-08-23T09:49:26.326Z,17.20
2018-08-23T09:50:26.308Z,16.20
2018-08-23T09:51:26.244Z,16.00
2018-08-23T09:52:26.298Z,14.10
2018-08-23T09:53:26.174Z,15.60
2018-08-23T09:54:26.161Z,15.00
2018-08-23T09:55:26.128Z,13.70
2018-08-23T09:56:35.993Z,14.00
2018-08-23T09:57:26.073Z,16.30
2018-08-23T09:58:26.041Z,14.80
2018-08-23T09:59:26.019Z,14.00
2018-08-23T10:00:25.984Z,14.70
2018-08-23T10:01:25.977Z,13.10
2018-08-23T10:02:25.946Z,13.80
2018-08-23T10:03:25.899Z,13.00
2018-08-23T10:04:26.047Z,13.00
2018-08-23T10:05:25.851Z,12.30
2018-08-23T10:06:25.848Z,11.90
2018-08-23T10:07:25.792Z,12.20
2018-08-23T10:08:25.767Z,15.90
2018-08-23T10:09:25.731Z,12.80
2018-08-23T10:10:25.709Z,13.30
2018-08-23T10:11:25.821Z,11.80
2018-08-23T10:12:25.653Z,11.60
2018-08-23T10:13:25.621Z,11.00
2018-08-23T10:14:25.596Z,10.00
2018-08-23T10:15:25.564Z,9.30
2018-08-23T10:16:35.515Z,9.10
2018-08-23T10:17:25.518Z,9.30
2018-08-23T10:18:25.496Z,8.90
2018-08-23T10:19:25.465Z,7.40
2018-08-23T10:20:25.432Z,7.30
2018-08-23T10:21:25.405Z,7.60
2018-08-23T10:22:25.407Z,7.30
2018-08-23T10:23:25.357Z,7.00
2018-08-23T10:24:25.335Z,6.60
2018-08-23T10:25:25.303Z,7.10
2018-08-23T10:26:25.301Z,6.30
2018-08-23T10:27:25.276Z,6.20
2018-08-23T10:28:25.273Z,6.40
2018-08-23T10:29:25.206Z,7.10
2018-08-23T10:30:25.183Z,8.50
2018-08-23T10:31:25.147Z,7.70
2018-08-23T10:32:25.220Z,7.90
2018-08-23T10:33:25.098Z,7.10
2018-08-23T10:34:25.070Z,8.50
2018-08-23T10:35:25.052Z,8.20
2018-08-23T10:36:33.549Z,7.90
2018-08-23T10:37:25.018Z,8.10
2018-08-23T10:38:24.974Z,8.30
2018-08-23T10:39:24.954Z,9.30
2018-08-23T10:40:24.924Z,9.40
2018-08-23T10:41:24.895Z,8.70
2018-08-23T10:42:24.892Z,8.20
2018-08-23T10:43:24.845Z,7.60
2018-08-23T10:44:24.830Z,8.10
2018-08-23T10:45:24.804Z,8.40
2018-08-23T10:46:24.780Z,10.50
2018-08-23T10:47:24.772Z,7.20
2018-08-23T10:48:24.729Z,8.60
2018-08-23T10:49:24.697Z,7.70
2018-08-23T10:50:24.668Z,7.90
2018-08-23T10:51:24.640Z,7.20
2018-08-23T10:52:24.634Z,7.10
2018-08-23T10:53:24.598Z,7.60
2018-08-23T10:54:24.579Z,8.10
2018-08-23T10:55:24.535Z,7.70
2018-08-23T10:56:24.509Z,8.60
2018-08-23T10:57:24.513Z,7.20
2018-08-23T10:58:24.460Z,7.90
2018-08-23T10:59:24.437Z,5.90
2018-08-23T11:00:24.412Z,5.90
2018-08-23T11:01:24.373Z,7.90
2018-08-23T11:02:24.372Z,7.00
2018-08-23T11:03:24.321Z,6.80
2018-08-23T11:04:24.292Z,5.50
2018-08-23T11:05:24.273Z,5.20
2018-08-23T11:06:24.246Z,6.90
2018-08-23T11:07:24.223Z,7.00
2018-08-23T11:08:24.216Z,6.10
2018-08-23T11:09:24.166Z,5.60
2018-08-23T11:10:24.133Z,5.80
2018-08-23T11:11:24.114Z,5.50
2018-08-23T11:12:24.089Z,5.10
2018-08-23T11:13:24.077Z,4.30
2018-08-23T11:14:24.027Z,4.90
2018-08-23T11:15:24.003Z,6.50
2018-08-23T11:16:23.978Z,5.50
2018-08-23T11:17:23.955Z,6.40
2018-08-23T11:18:23.959Z,5.70
2018-08-23T11:19:23.940Z,5.90
2018-08-23T11:20:23.877Z,4.70
2018-08-23T11:21:23.871Z,7.70
2018-08-23T11:22:23.823Z,7.20
2018-08-23T11:23:23.828Z,6.30
2018-08-23T11:24:23.770Z,7.00
2018-08-23T11:25:23.752Z,7.50
2018-08-23T11:26:23.727Z,8.40
2018-08-23T11:27:23.692Z,7.60
2018-08-23T11:28:23.667Z,7.70
2018-08-23T11:29:23.692Z,6.60
2018-08-23T11:30:23.623Z,8.00
2018-08-23T11:31:23.595Z,7.20
2018-08-23T11:32:23.572Z,7.40
2018-08-23T11:33:23.537Z,7.80
2018-08-23T11:34:23.541Z,7.80
2018-08-23T11:35:23.487Z,6.10
2018-08-23T11:36:23.496Z,7.50
2018-08-23T11:37:23.441Z,6.40
2018-08-23T11:38:23.416Z,7.50
2018-08-23T11:39:23.421Z,7.60
2018-08-23T11:40:23.365Z,7.20
2018-08-23T11:41:23.327Z,7.10
2018-08-23T11:42:23.303Z,7.30
2018-08-23T11:43:23.291Z,6.80
2018-08-23T11:44:23.259Z,5.70
2018-08-23T11:45:23.259Z,8.30
2018-08-23T11:46:23.197Z,5.90
2018-08-23T11:47:23.171Z,8.00
2018-08-23T11:48:23.147Z,7.70
2018-08-23T11:49:23.127Z,7.70
2018-08-23T11:50:23.120Z,7.50
2018-08-23T11:51:23.071Z,7.20
2018-08-23T11:52:23.045Z,8.60
2018-08-23T11:53:23.252Z,7.00
2018-08-23T11:54:22.986Z,5.90
2018-08-23T11:55:22.984Z,8.00
2018-08-23T11:56:33.116Z,6.90
2018-08-23T11:57:22.913Z,6.10
2018-08-23T11:58:22.925Z,6.90
2018-08-23T11:59:22.861Z,6.00
2018-08-23T12:00:22.837Z,6.50
2018-08-23T12:01:22.833Z,5.60
2018-08-23T12:02:22.782Z,6.50
2018-08-23T12:03:22.747Z,6.40
2018-08-23T12:04:22.723Z,7.00
2018-08-23T12:05:22.701Z,7.10
2018-08-23T12:06:22.712Z,6.40
2018-08-23T12:07:22.647Z,6.10
2018-08-23T12:08:22.626Z,6.70
2018-08-23T12:09:22.593Z,6.00
2018-08-23T12:10:22.564Z,6.00
2018-08-23T12:11:22.570Z,8.20
2018-08-23T12:12:22.509Z,6.90
2018-08-23T12:13:22.490Z,5.00
2018-08-23T12:14:22.460Z,7.80
2018-08-23T12:15:22.460Z,5.90
2018-08-23T12:16:22.404Z,6.50
2018-08-23T12:17:32.172Z,6.50
2018-08-23T12:18:22.352Z,5.10
2018-08-23T12:19:22.328Z,4.70
2018-08-23T12:20:22.298Z,5.80
2018-08-23T12:21:22.269Z,10.00
2018-08-23T12:22:22.267Z,6.60
2018-08-23T12:23:22.209Z,6.10
2018-08-23T12:24:22.179Z,7.10
2018-08-23T12:25:22.163Z,9.30
2018-08-23T12:26:22.151Z,8.80
2018-08-23T12:27:22.124Z,7.60
2018-08-23T12:28:22.068Z,7.30
2018-08-23T12:29:22.050Z,6.70
2018-08-23T12:30:22.022Z,5.60
2018-08-23T12:31:21.994Z,6.60
2018-08-23T12:32:21.973Z,5.70
2018-08-23T12:33:21.948Z,7.40
2018-08-23T12:34:21.899Z,8.00
2018-08-23T12:35:21.869Z,6.90
2018-08-23T12:36:21.842Z,5.10
2018-08-23T12:37:33.199Z,5.70
2018-08-23T12:38:21.818Z,6.80
2018-08-23T12:39:21.754Z,6.60
2018-08-23T12:40:21.723Z,6.70
2018-08-23T12:41:21.702Z,6.10
2018-08-23T12:42:21.690Z,5.80
2018-08-23T12:43:21.687Z,6.20
2018-08-23T12:44:21.632Z,6.60
2018-08-23T12:45:21.582Z,5.80
2018-08-23T12:46:21.575Z,5.80
2018-08-23T12:47:21.522Z,6.50
2018-08-23T12:48:21.523Z,7.30
2018-08-23T12:49:21.585Z,7.80
2018-08-23T12:50:21.440Z,6.60
2018-08-23T12:51:21.412Z,5.80
2018-08-23T12:52:21.378Z,6.20
2018-08-23T12:53:21.405Z,6.50
2018-08-23T12:54:21.317Z,5.10
2018-08-23T12:55:21.326Z,5.20
2018-08-23T12:56:21.311Z,5.60
2018-08-23T12:57:31.741Z,6.50